createdAt,value
2019-03-21T00:01:32.107Z,96.63
2019-03-21T00:04:34.149Z,100.83
2019-03-21T00:07:36.062Z,98.00
2019-03-21T00:10:41.612Z,86.77
2019-03-21T00:13:44.692Z,79.53
2019-03-21T00:16:46.581Z,82.30
2019-03-21T00:19:48.495Z,78.30
2019-03-21T00:22:50.379Z,81.33
2019-03-21T00:25:52.275Z,79.10
2019-03-21T00:28:54.173Z,84.00
2019-03-21T00:31:56.219Z,72.93
2019-03-21T00:34:58.148Z,74.00
2019-03-21T00:38:01.183Z,86.17
2019-03-21T00:41:03.595Z,72.13
2019-03-21T00:44:05.536Z,79.63
2019-03-21T00:47:07.536Z,73.07
2019-03-21T00:50:22.091Z,73.10
2019-03-21T00:53:24.151Z,77.53
2019-03-21T00:56:26.085Z,78.27
2019-03-21T00:59:27.978Z,73.50
2019-03-21T01:02:29.972Z,71.27
2019-03-21T01:05:31.807Z,64.10
2019-03-21T01:08:33.761Z,67.60
2019-03-21T01:11:35.742Z,64.07
2019-03-21T01:14:37.637Z,71.47
2019-03-21T01:17:39.534Z,66.37
2019-03-21T01:20:41.442Z,65.17
2019-03-21T01:23:44.630Z,75.07
2019-03-21T01:26:46.839Z,62.37
2019-03-21T01:29:48.876Z,64.93
2019-03-21T01:32:50.863Z,66.73
2019-03-21T01:35:52.778Z,64.70
2019-03-21T01:38:54.773Z,69.87
2019-03-21T01:41:57.238Z,68.60
2019-03-21T01:44:59.107Z,63.27
2019-03-21T01:48:01.035Z,59.67
2019-03-21T01:51:02.960Z,65.27
2019-03-21T01:54:04.855Z,62.97
2019-03-21T01:57:06.819Z,61.00
2019-03-21T02:00:12.302Z,62.70
2019-03-21T02:03:14.259Z,62.93
2019-03-21T02:06:16.158Z,54.17
2019-03-21T02:09:18.121Z,65.63
2019-03-21T02:12:21.282Z,57.63
2019-03-21T02:15:25.009Z,49.47
2019-03-21T02:18:26.995Z,49.43
2019-03-21T02:21:28.918Z,41.27
2019-03-21T02:24:30.774Z,46.13
2019-03-21T02:27:32.644Z,46.00
2019-03-21T02:30:42.334Z,40.33
2019-03-21T02:33:44.257Z,41.67
2019-03-21T02:36:46.398Z,44.40
2019-03-21T02:39:58.920Z,44.70
2019-03-21T02:42:52.360Z,41.67
2019-03-21T02:45:54.197Z,43.87
2019-03-21T02:48:56.023Z,49.30
2019-03-21T02:51:57.947Z,48.97
2019-03-21T02:54:59.905Z,49.73
2019-03-21T02:58:01.848Z,49.47
2019-03-21T03:01:03.779Z,40.70
2019-03-21T03:04:05.679Z,42.67
2019-03-21T03:07:07.533Z,40.10
2019-03-21T03:10:13.060Z,47.13
2019-03-21T03:13:14.928Z,40.27
2019-03-21T03:16:17.302Z,43.13
2019-03-21T03:19:19.342Z,44.60
2019-03-21T03:22:21.254Z,36.80
2019-03-21T03:25:23.090Z,43.13
2019-03-21T03:28:30.554Z,34.33
2019-03-21T03:31:32.530Z,38.37
2019-03-21T03:34:34.464Z,37.07
2019-03-21T03:37:36.354Z,42.37
2019-03-21T03:41:00.222Z,37.47
2019-03-21T03:44:02.184Z,36.70
2019-03-21T03:47:04.100Z,33.67
2019-03-21T03:50:09.270Z,38.37
2019-03-21T03:53:11.167Z,41.63
2019-03-21T03:56:13.106Z,42.13
2019-03-21T03:59:15.045Z,36.67
2019-03-21T04:02:16.971Z,36.37
2019-03-21T04:05:19.498Z,41.20
2019-03-21T04:08:21.425Z,43.83
2019-03-21T04:11:23.301Z,37.80
2019-03-21T04:14:25.184Z,36.30
2019-03-21T04:17:27.147Z,32.17
2019-03-21T04:20:35.795Z,36.17
2019-03-21T04:23:37.750Z,30.43
2019-03-21T04:26:39.715Z,35.03
2019-03-21T04:29:41.698Z,34.33
2019-03-21T04:32:44.154Z,36.73
2019-03-21T04:35:46.469Z,29.17
2019-03-21T04:38:49.751Z,33.33
2019-03-21T04:41:51.739Z,39.77
2019-03-21T04:44:53.742Z,31.43
2019-03-21T04:47:55.590Z,36.00
2019-03-21T04:50:57.479Z,47.20
2019-03-21T04:53:59.355Z,33.00
2019-03-21T04:57:01.293Z,36.03
2019-03-21T05:00:09.805Z,35.70
2019-03-21T05:03:21.477Z,38.30
2019-03-21T05:06:23.351Z,30.87
2019-03-21T05:09:25.263Z,28.33
2019-03-21T05:12:27.107Z,32.30
2019-03-21T05:15:35.200Z,32.23
2019-03-21T05:18:46.757Z,28.67
2019-03-21T05:21:48.754Z,32.70
2019-03-21T05:24:50.661Z,36.83
2019-03-21T05:27:52.663Z,29.87
2019-03-21T05:31:09.943Z,34.77
2019-03-21T05:34:11.923Z,28.63
2019-03-21T05:37:13.858Z,32.43
2019-03-21T05:40:18.295Z,30.13
2019-03-21T05:43:36.013Z,28.80
2019-03-21T05:46:37.948Z,37.50
2019-03-21T05:49:39.834Z,29.83
2019-03-21T05:52:41.843Z,31.90
2019-03-21T05:55:44.037Z,32.17
2019-03-21T05:58:46.163Z,35.40
2019-03-21T06:01:48.152Z,30.90
2019-03-21T06:04:50.114Z,37.27
2019-03-21T06:08:07.400Z,26.27
2019-03-21T06:11:09.641Z,39.13
2019-03-21T06:14:11.541Z,38.73
2019-03-21T06:17:13.490Z,34.03
2019-03-21T06:20:30.967Z,43.83
2019-03-21T06:23:48.363Z,42.90
2019-03-21T06:26:53.926Z,35.80
2019-03-21T06:29:55.868Z,38.57
2019-03-21T06:32:57.853Z,37.70
2019-03-21T06:36:00.054Z,41.33
2019-03-21T06:39:01.932Z,36.83
2019-03-21T06:42:06.336Z,38.27
2019-03-21T06:45:08.508Z,38.77
2019-03-21T06:48:10.440Z,37.83
2019-03-21T06:51:12.490Z,36.03
2019-03-21T06:54:14.440Z,39.10
2019-03-21T06:57:16.432Z,36.30
2019-03-21T07:00:18.305Z,47.13
2019-03-21T07:03:20.254Z,32.00
2019-03-21T07:06:22.146Z,32.00
2019-03-21T07:09:24.111Z,36.80
2019-03-21T07:12:26.009Z,40.57
2019-03-21T07:15:28.007Z,40.20
2019-03-21T07:18:29.874Z,28.80
2019-03-21T07:21:31.878Z,34.23
2019-03-21T07:24:34.835Z,30.77
2019-03-21T07:27:36.714Z,29.83
2019-03-21T07:30:38.610Z,32.07
2019-03-21T07:33:40.543Z,33.20
2019-03-21T07:36:42.417Z,30.70
2019-03-21T07:39:44.295Z,34.43
2019-03-21T07:42:46.299Z,38.40
2019-03-21T07:45:48.354Z,35.30
2019-03-21T07:48:50.282Z,33.93
2019-03-21T07:51:52.232Z,29.17
2019-03-21T07:54:54.148Z,31.70
2019-03-21T07:57:56.141Z,29.30
2019-03-21T08:00:58.068Z,28.57
2019-03-21T08:04:02.755Z,28.63
2019-03-21T08:07:03.897Z,28.60
2019-03-21T08:10:09.220Z,28.40
2019-03-21T08:13:11.179Z,36.60
2019-03-21T08:16:13.064Z,29.03
2019-03-21T08:19:14.970Z,30.43
2019-03-21T08:22:16.810Z,29.97
2019-03-21T08:25:18.741Z,27.97
2019-03-21T08:28:20.741Z,29.80
2019-03-21T08:31:22.668Z,34.80
2019-03-21T08:34:24.700Z,31.43
2019-03-21T08:37:26.752Z,28.90
2019-03-21T08:40:28.830Z,33.90
2019-03-21T08:43:30.880Z,30.73
2019-03-21T08:46:32.939Z,28.40
2019-03-21T08:49:34.858Z,27.07
2019-03-21T08:52:36.826Z,25.47
2019-03-21T08:55:38.737Z,34.57
2019-03-21T08:58:40.686Z,25.63
2019-03-21T09:01:42.569Z,29.80
2019-03-21T09:04:44.550Z,34.27
2019-03-21T09:07:46.567Z,35.83
2019-03-21T09:10:48.636Z,32.80
2019-03-21T09:13:50.602Z,31.63
2019-03-21T09:16:52.544Z,30.87
2019-03-21T09:19:54.468Z,35.93
2019-03-21T09:22:57.495Z,31.93
2019-03-21T09:25:59.376Z,33.60
2019-03-21T09:29:01.304Z,32.47
2019-03-21T09:32:03.166Z,27.27
2019-03-21T09:35:06.220Z,31.40
2019-03-21T09:38:08.111Z,30.17
2019-03-21T09:41:10.060Z,32.27
2019-03-21T09:44:12.423Z,30.20
2019-03-21T09:47:14.394Z,28.60
2019-03-21T09:50:28.029Z,27.67
2019-03-21T09:53:29.962Z,31.20
2019-03-21T09:56:31.873Z,31.23
2019-03-21T09:59:33.736Z,29.83
2019-03-21T10:02:35.602Z,30.87
2019-03-21T10:05:37.554Z,36.67
2019-03-21T10:08:39.491Z,30.17
2019-03-21T10:11:41.424Z,30.33
2019-03-21T10:14:43.851Z,35.73
2019-03-21T10:17:45.742Z,29.50
2019-03-21T10:20:47.716Z,28.73
2019-03-21T10:23:49.623Z,28.83
2019-03-21T10:26:51.493Z,31.70
2019-03-21T10:29:53.423Z,35.83
2019-03-21T10:32:55.328Z,36.43
2019-03-21T10:35:57.282Z,31.33
2019-03-21T10:38:59.162Z,30.03
2019-03-21T10:42:01.069Z,30.80
2019-03-21T10:45:05.764Z,26.40
2019-03-21T10:48:08.766Z,27.23
2019-03-21T10:51:10.711Z,32.90
2019-03-21T10:54:12.701Z,33.27
2019-03-21T10:57:14.627Z,30.03
2019-03-21T11:00:16.795Z,29.37
2019-03-21T11:03:18.757Z,32.83
2019-03-21T11:06:21.776Z,31.07
2019-03-21T11:09:23.788Z,28.20
2019-03-21T11:12:25.700Z,28.93
2019-03-21T11:15:27.619Z,27.63
2019-03-21T11:18:36.000Z,37.67
2019-03-21T11:21:33.463Z,31.63
2019-03-21T11:24:35.742Z,24.83
2019-03-21T11:27:37.685Z,30.47
2019-03-21T11:30:41.015Z,28.47
2019-03-21T11:33:42.949Z,27.63
2019-03-21T11:36:44.997Z,28.83
2019-03-21T11:39:46.939Z,30.37
2019-03-21T11:42:48.913Z,27.17
2019-03-21T11:45:51.307Z,29.00
2019-03-21T11:48:53.347Z,28.47
2019-03-21T11:51:55.231Z,29.80
2019-03-21T11:54:57.192Z,29.10
2019-03-21T11:57:59.108Z,32.43
2019-03-21T12:01:00.991Z,26.10
2019-03-21T12:04:03.075Z,28.33
2019-03-21T12:07:05.181Z,25.03
2019-03-21T12:10:10.013Z,23.80
2019-03-21T12:13:11.972Z,30.43
2019-03-21T12:16:13.896Z,23.27
2019-03-21T12:19:15.822Z,27.60
2019-03-21T12:22:29.163Z,26.17
2019-03-21T12:25:21.557Z,24.63
2019-03-21T12:28:23.478Z,22.97
2019-03-21T12:31:25.802Z,22.47
2019-03-21T12:34:27.791Z,21.30
2019-03-21T12:37:29.859Z,18.83
2019-03-21T12:40:32.019Z,19.03
2019-03-21T12:43:33.885Z,21.30
2019-03-21T12:46:35.767Z,19.70
2019-03-21T12:49:37.736Z,20.60
2019-03-21T12:53:37.217Z,23.47
2019-03-21T12:55:43.465Z,21.17
2019-03-21T12:58:45.759Z,22.13
2019-03-21T13:01:47.657Z,30.97
2019-03-21T13:04:49.587Z,25.33
2019-03-21T13:07:51.509Z,18.50
2019-03-21T13:10:53.466Z,16.17
2019-03-21T13:13:55.451Z,20.30
2019-03-21T13:16:57.335Z,22.77
2019-03-21T13:19:59.329Z,17.70
2019-03-21T13:23:01.273Z,21.60
2019-03-21T13:26:03.222Z,15.60
2019-03-21T13:29:05.141Z,16.13
2019-03-21T13:32:07.189Z,18.07
2019-03-21T13:35:09.377Z,27.63
2019-03-21T13:38:11.417Z,19.47
2019-03-21T13:41:13.378Z,27.33
2019-03-21T13:44:16.003Z,19.23
2019-03-21T13:47:17.914Z,16.30
2019-03-21T13:50:19.950Z,23.00
2019-03-21T13:53:22.010Z,22.87
2019-03-21T13:56:24.020Z,16.70
2019-03-21T13:59:27.137Z,16.00
2019-03-21T14:02:29.181Z,14.77
2019-03-21T14:05:31.079Z,14.70
2019-03-21T14:08:33.079Z,19.07
2019-03-21T14:11:36.121Z,22.83
2019-03-21T14:14:38.050Z,16.13
2019-03-21T14:17:40.003Z,17.00
2019-03-21T14:20:41.942Z,18.63
2019-03-21T14:23:43.929Z,22.30
2019-03-21T14:26:45.918Z,22.23
2019-03-21T14:29:47.780Z,24.03
2019-03-21T14:32:49.715Z,21.40
2019-03-21T14:35:51.736Z,15.13
2019-03-21T14:38:53.706Z,18.20
2019-03-21T14:41:55.625Z,19.80
2019-03-21T14:44:57.581Z,17.53
2019-03-21T14:47:59.482Z,20.87
2019-03-21T14:51:01.490Z,17.70
2019-03-21T14:54:03.379Z,17.10
2019-03-21T14:57:05.298Z,18.83
2019-03-21T15:00:13.845Z,18.20
2019-03-21T15:03:15.800Z,19.77
2019-03-21T15:06:17.708Z,21.63
2019-03-21T15:09:19.718Z,22.40
2019-03-21T15:12:21.615Z,19.90
2019-03-21T15:15:23.624Z,22.17
2019-03-21T15:18:25.588Z,21.37
2019-03-21T15:21:27.489Z,21.87
2019-03-21T15:24:29.443Z,20.67
2019-03-21T15:27:31.412Z,20.57
2019-03-21T15:30:33.366Z,20.13
2019-03-21T15:33:35.340Z,26.90
2019-03-21T15:36:38.474Z,19.40
2019-03-21T15:39:41.303Z,23.03
2019-03-21T15:42:43.181Z,16.83
2019-03-21T15:45:45.082Z,23.77
2019-03-21T15:48:46.971Z,39.40
2019-03-21T15:51:49.030Z,29.03
2019-03-21T15:54:51.029Z,25.07
2019-03-21T15:57:52.999Z,23.17
2019-03-21T16:00:54.894Z,31.57
2019-03-21T16:03:57.453Z,36.43
2019-03-21T16:06:59.561Z,19.87
2019-03-21T16:10:01.742Z,19.77
2019-03-21T16:13:04.068Z,22.73
2019-03-21T16:16:06.201Z,23.37
2019-03-21T16:19:08.598Z,34.37
2019-03-21T16:22:10.477Z,41.37
2019-03-21T16:25:12.377Z,39.60
2019-03-21T16:28:14.706Z,30.00
2019-03-21T16:31:16.724Z,49.10
2019-03-21T16:34:18.640Z,47.20
2019-03-21T16:37:20.543Z,37.93
2019-03-21T16:40:22.606Z,56.20
2019-03-21T16:43:24.565Z,38.73
2019-03-21T16:46:27.433Z,31.90
2019-03-21T16:49:29.375Z,33.93
2019-03-21T16:52:31.351Z,35.90
2019-03-21T16:55:33.367Z,28.40
2019-03-21T16:58:35.553Z,30.43
2019-03-21T17:01:37.693Z,36.80
2019-03-21T17:04:39.994Z,39.47
2019-03-21T17:07:41.912Z,54.77
2019-03-21T17:10:43.942Z,81.00
2019-03-21T17:13:45.973Z,66.37
2019-03-21T17:16:48.633Z,91.97
2019-03-21T17:19:50.537Z,37.57
2019-03-21T17:22:52.552Z,30.70
2019-03-21T17:25:54.519Z,29.47
2019-03-21T17:28:58.144Z,28.63
2019-03-21T17:32:00.076Z,59.57
2019-03-21T17:35:02.750Z,64.27
2019-03-21T17:38:04.622Z,75.07
2019-03-21T17:41:06.636Z,41.37
2019-03-21T17:44:10.300Z,34.10
2019-03-21T17:47:12.229Z,29.83
2019-03-21T17:50:15.572Z,25.60
2019-03-21T17:53:17.654Z,27.20
2019-03-21T17:56:19.635Z,34.17
2019-03-21T17:59:21.549Z,33.80
2019-03-21T18:02:23.503Z,35.63
2019-03-21T18:05:27.276Z,37.93
2019-03-21T18:08:29.462Z,32.10
2019-03-21T18:11:34.793Z,35.73
2019-03-21T18:14:37.054Z,34.90
2019-03-21T18:17:39.061Z,36.70
2019-03-21T18:20:41.395Z,46.43
2019-03-21T18:23:43.351Z,41.30
2019-03-21T18:26:45.596Z,37.57
2019-03-21T18:29:47.509Z,47.43
2019-03-21T18:32:53.361Z,53.97
2019-03-21T18:35:55.299Z,55.30
2019-03-21T18:38:59.966Z,63.30
2019-03-21T18:42:03.812Z,57.67
2019-03-21T18:45:11.625Z,55.43
2019-03-21T18:48:13.535Z,56.20
2019-03-21T18:51:16.668Z,60.73
2019-03-21T18:54:18.815Z,59.30
2019-03-21T18:57:20.765Z,65.67
2019-03-21T19:00:23.777Z,56.47
2019-03-21T19:03:25.967Z,58.27
2019-03-21T19:06:28.483Z,49.37
2019-03-21T19:09:30.435Z,52.57
2019-03-21T19:12:37.787Z,56.47
2019-03-21T19:15:41.179Z,63.27
2019-03-21T19:18:43.223Z,63.30
2019-03-21T19:21:45.660Z,61.90
2019-03-21T19:24:47.659Z,58.73
2019-03-21T19:27:49.824Z,59.73
2019-03-21T19:30:51.724Z,63.00
2019-03-21T19:33:54.771Z,56.70
2019-03-21T19:36:59.649Z,58.20
2019-03-21T19:40:04.148Z,67.57
2019-03-21T19:43:06.350Z,73.80
2019-03-21T19:46:08.343Z,74.47
2019-03-21T19:49:10.675Z,84.10
2019-03-21T19:52:15.872Z,85.40
2019-03-21T19:55:30.337Z,83.73
2019-03-21T19:58:24.393Z,88.07
2019-03-21T20:01:27.634Z,91.90
2019-03-21T20:04:29.572Z,94.50
2019-03-21T20:07:33.600Z,89.00
2019-03-21T20:10:35.988Z,95.77
2019-03-21T20:13:39.191Z,104.17
2019-03-21T20:16:41.132Z,105.23
2019-03-21T20:19:43.403Z,105.13
2019-03-21T20:22:45.562Z,101.17
2019-03-21T20:25:49.175Z,98.67
2019-03-21T20:28:51.091Z,105.70
2019-03-21T20:31:53.690Z,102.83
2019-03-21T20:34:57.515Z,131.30
2019-03-21T20:38:03.438Z,133.27
2019-03-21T20:41:05.657Z,120.27
2019-03-21T20:44:15.056Z,137.30
2019-03-21T20:47:12.044Z,128.23
2019-03-21T20:50:14.232Z,144.93
2019-03-21T20:53:16.138Z,126.90
2019-03-21T20:56:18.407Z,138.97
2019-03-21T20:59:20.302Z,138.33
2019-03-21T21:02:22.211Z,122.37
2019-03-21T21:05:24.406Z,153.53
2019-03-21T21:08:27.321Z,143.57
2019-03-21T21:11:29.339Z,157.30
2019-03-21T21:14:31.239Z,163.23
2019-03-21T21:17:34.352Z,139.77
2019-03-21T21:20:36.261Z,151.30
2019-03-21T21:23:40.119Z,133.87
2019-03-21T21:26:43.426Z,138.83
2019-03-21T21:29:45.427Z,161.00
2019-03-21T21:32:47.350Z,148.10
2019-03-21T21:35:49.298Z,131.80
2019-03-21T21:38:51.193Z,144.40
2019-03-21T21:41:53.102Z,102.33
2019-03-21T21:44:55.051Z,103.13
2019-03-21T21:47:57.013Z,128.60
2019-03-21T21:50:59.226Z,106.13
2019-03-21T21:54:01.175Z,98.60
2019-03-21T21:57:03.177Z,99.63
2019-03-21T22:00:11.144Z,94.10
2019-03-21T22:03:13.045Z,106.37
2019-03-21T22:06:14.907Z,106.60
2019-03-21T22:09:16.870Z,106.03
2019-03-21T22:12:18.795Z,102.97
2019-03-21T22:15:20.663Z,109.20
2019-03-21T22:18:22.616Z,107.70
2019-03-21T22:21:24.495Z,111.33
2019-03-21T22:24:26.425Z,114.90
2019-03-21T22:27:28.343Z,104.70
2019-03-21T22:30:30.274Z,108.43
2019-03-21T22:33:32.195Z,108.47
2019-03-21T22:36:34.060Z,105.30
2019-03-21T22:39:35.963Z,101.67
2019-03-21T22:42:37.925Z,102.00
2019-03-21T22:45:39.812Z,118.23
2019-03-21T22:48:41.713Z,101.10
2019-03-21T22:51:43.668Z,121.20
2019-03-21T22:54:46.841Z,112.90
2019-03-21T22:57:49.170Z,114.77
2019-03-21T23:00:52.542Z,123.60
2019-03-21T23:03:54.657Z,120.60
2019-03-21T23:06:56.629Z,120.90
2019-03-21T23:09:58.481Z,116.00
2019-03-21T23:13:01.127Z,128.20
2019-03-21T23:16:03.158Z,124.60
2019-03-21T23:19:05.093Z,120.27
2019-03-21T23:22:06.994Z,123.63
2019-03-21T23:25:10.127Z,131.87
2019-03-21T23:28:11.983Z,126.33
2019-03-21T23:31:13.883Z,120.57
2019-03-21T23:34:15.905Z,123.73
2019-03-21T23:37:17.833Z,120.67
2019-03-21T23:40:19.838Z,128.60
2019-03-21T23:43:23.742Z,116.67
2019-03-21T23:46:25.662Z,126.43
2019-03-21T23:49:27.588Z,123.07
2019-03-21T23:52:29.491Z,117.77
2019-03-21T23:55:31.511Z,125.50
2019-03-21T23:58:33.533Z,126.07
